createdAt,value
2016-08-25T00:00:40.099Z,747.24
2016-08-25T00:01:40.095Z,747.26
2016-08-25T00:02:40.092Z,747.27
2016-08-25T00:03:40.081Z,747.27
2016-08-25T00:04:40.078Z,747.23
2016-08-25T00:05:40.073Z,747.2
2016-08-25T00:06:40.075Z,747.2
2016-08-25T00:07:40.072Z,747.22
2016-08-25T00:08:40.059Z,747.2
2016-08-25T00:09:40.063Z,747.22
2016-08-25T00:10:40.060Z,747.25
2016-08-25T00:11:40.056Z,747.24
2016-08-25T00:12:40.045Z,747.21
2016-08-25T00:13:40.047Z,747.17
2016-08-25T00:14:40.043Z,747.2
2016-08-25T00:15:40.040Z,747.2
2016-08-25T00:16:40.036Z,747.21
2016-08-25T00:17:40.025Z,747.17
2016-08-25T00:18:40.029Z,747.2
2016-08-25T00:19:40.024Z,747.18
2016-08-25T00:20:40.020Z,747.2
2016-08-25T00:21:40.009Z,747.21
2016-08-25T00:22:40.011Z,747.19
2016-08-25T00:23:40.002Z,747.2
2016-08-25T00:24:39.997Z,747.16
2016-08-25T00:25:39.992Z,747.18
2016-08-25T00:26:39.987Z,747.17
2016-08-25T00:27:39.997Z,747.19
2016-08-25T00:28:39.981Z,747.18
2016-08-25T00:29:39.976Z,747.19
2016-08-25T00:30:39.971Z,747.16
2016-08-25T00:31:39.967Z,747.17
2016-08-25T00:32:39.970Z,747.15
2016-08-25T00:33:39.966Z,747.15
2016-08-25T00:34:39.962Z,747.16
2016-08-25T00:35:39.951Z,747.08
2016-08-25T00:36:39.953Z,747.12
2016-08-25T00:37:39.949Z,747.1
2016-08-25T00:38:39.939Z,747.11
2016-08-25T00:39:39.933Z,747.13
2016-08-25T00:40:39.931Z,747.15
2016-08-25T00:41:39.925Z,747.11
2016-08-25T00:42:39.928Z,747.12
2016-08-25T00:43:39.924Z,747.08
2016-08-25T00:44:39.914Z,747.09
2016-08-25T00:45:39.915Z,747.04
2016-08-25T00:46:39.912Z,747.06
2016-08-25T00:47:39.906Z,747.09
2016-08-25T00:48:39.895Z,747.08
2016-08-25T00:49:39.898Z,747.1
2016-08-25T00:50:39.895Z,747.08
2016-08-25T00:51:39.891Z,747.08
2016-08-25T00:52:39.885Z,747.07
2016-08-25T00:53:39.874Z,747.09
2016-08-25T00:54:39.871Z,747.08
2016-08-25T00:55:39.867Z,747.09
2016-08-25T00:56:39.862Z,747.05
2016-08-25T00:57:39.863Z,747.02
2016-08-25T00:58:39.852Z,747.06
2016-08-25T00:59:39.849Z,747.07
2016-08-25T01:00:39.845Z,747.04
2016-08-25T01:01:39.844Z,747.06
2016-08-25T01:02:39.844Z,747.01
2016-08-25T01:03:39.832Z,747.03
2016-08-25T01:04:39.827Z,747.01
2016-08-25T01:05:39.831Z,747.02
2016-08-25T01:06:39.820Z,747.05
2016-08-25T01:07:39.814Z,747.05
2016-08-25T01:08:39.817Z,747.01
2016-08-25T01:09:39.813Z,747.03
2016-08-25T01:10:39.809Z,747.02
2016-08-25T01:11:39.796Z,746.99
2016-08-25T01:12:39.793Z,747
2016-08-25T01:13:39.797Z,747
2016-08-25T01:14:39.791Z,747
2016-08-25T01:15:39.799Z,747
2016-08-25T01:16:39.783Z,746.99
2016-08-25T01:17:39.772Z,746.99
2016-08-25T01:18:39.775Z,746.97
2016-08-25T01:19:39.764Z,746.99
2016-08-25T01:20:39.761Z,746.98
2016-08-25T01:21:39.756Z,746.96
2016-08-25T01:22:39.751Z,747
2016-08-25T01:23:39.754Z,746.96
2016-08-25T01:24:39.750Z,746.95
2016-08-25T01:25:39.744Z,747
2016-08-25T01:26:39.735Z,747
2016-08-25T01:27:39.730Z,746.97
2016-08-25T01:28:39.727Z,746.99
2016-08-25T01:29:39.722Z,747
2016-08-25T01:30:39.727Z,747
2016-08-25T01:31:39.722Z,746.99
2016-08-25T01:32:39.710Z,746.96
2016-08-25T01:33:39.706Z,746.98
2016-08-25T01:34:39.704Z,747
2016-08-25T01:35:39.700Z,746.95
2016-08-25T01:36:39.695Z,746.95
2016-08-25T01:37:39.698Z,746.96
2016-08-25T01:38:39.694Z,746.95
2016-08-25T01:39:39.684Z,746.92
2016-08-25T01:40:39.678Z,746.94
2016-08-25T01:41:39.682Z,746.93
2016-08-25T01:42:39.672Z,746.94
2016-08-25T01:43:39.674Z,746.92
2016-08-25T01:44:39.670Z,746.95
2016-08-25T01:45:39.659Z,746.94
2016-08-25T01:46:39.663Z,746.9
2016-08-25T01:47:39.658Z,746.92
2016-08-25T01:48:39.659Z,746.91
2016-08-25T01:49:39.651Z,746.94
2016-08-25T01:50:39.648Z,746.9
2016-08-25T01:51:39.636Z,746.91
2016-08-25T01:52:39.642Z,746.9
2016-08-25T01:53:39.637Z,746.88
2016-08-25T01:54:39.633Z,746.87
2016-08-25T01:55:39.628Z,746.88
2016-08-25T01:56:39.619Z,746.86
2016-08-25T01:57:39.622Z,746.85
2016-08-25T01:58:39.610Z,746.86
2016-08-25T01:59:39.608Z,746.85
2016-08-25T02:00:39.603Z,746.87
2016-08-25T02:01:39.605Z,746.89
2016-08-25T02:02:39.595Z,746.87
2016-08-25T02:03:39.591Z,746.86
2016-08-25T02:04:39.588Z,746.87
2016-08-25T02:05:39.583Z,746.89
2016-08-25T02:06:39.586Z,746.83
2016-08-25T02:07:39.576Z,746.84
2016-08-25T02:08:39.579Z,746.86
2016-08-25T02:09:39.575Z,746.85
2016-08-25T02:10:39.570Z,746.83
2016-08-25T02:11:39.567Z,746.84
2016-08-25T02:12:39.556Z,746.82
2016-08-25T02:13:39.553Z,746.85
2016-08-25T02:14:39.555Z,746.81
2016-08-25T02:15:39.544Z,746.85
2016-08-25T02:16:39.539Z,746.85
2016-08-25T02:17:39.535Z,746.81
2016-08-25T02:18:39.538Z,746.8
2016-08-25T02:19:39.529Z,746.78
2016-08-25T02:20:39.523Z,746.8
2016-08-25T02:21:39.526Z,746.81
2016-08-25T02:22:39.522Z,746.77
2016-08-25T02:23:39.521Z,746.78
2016-08-25T02:24:39.512Z,746.81
2016-08-25T02:25:39.504Z,746.78
2016-08-25T02:26:39.507Z,746.81
2016-08-25T02:27:39.495Z,746.78
2016-08-25T02:28:39.492Z,746.77
2016-08-25T02:29:39.489Z,746.77
2016-08-25T02:30:39.484Z,746.76
2016-08-25T02:31:39.486Z,746.74
2016-08-25T02:32:39.482Z,746.75
2016-08-25T02:33:39.478Z,746.71
2016-08-25T02:34:39.473Z,746.7
2016-08-25T02:35:39.463Z,746.74
2016-08-25T02:36:39.466Z,746.74
2016-08-25T02:37:39.455Z,746.68
2016-08-25T02:38:39.449Z,746.7
2016-08-25T02:39:39.454Z,746.69
2016-08-25T02:40:39.443Z,746.67
2016-08-25T02:41:39.438Z,746.67
2016-08-25T02:42:39.436Z,746.65
2016-08-25T02:43:39.437Z,746.64
2016-08-25T02:44:39.426Z,746.62
2016-08-25T02:45:39.422Z,746.6
2016-08-25T02:46:39.426Z,746.62
2016-08-25T02:47:39.422Z,746.59
2016-08-25T02:48:39.418Z,746.59
2016-08-25T02:49:39.407Z,746.62
2016-08-25T02:50:39.403Z,746.6
2016-08-25T02:51:39.406Z,746.65
2016-08-25T02:52:39.395Z,746.59
2016-08-25T02:53:39.391Z,746.62
2016-08-25T02:54:39.387Z,746.63
2016-08-25T02:55:39.382Z,746.6
2016-08-25T02:56:39.377Z,746.64
2016-08-25T02:57:39.381Z,746.63
2016-08-25T02:58:39.372Z,746.58
2016-08-25T02:59:39.367Z,746.61
2016-08-25T03:00:39.368Z,746.64
2016-08-25T03:01:39.358Z,746.58
2016-08-25T03:02:39.361Z,746.62
2016-08-25T03:03:39.350Z,746.6
2016-08-25T03:04:39.345Z,746.59
2016-08-25T03:05:39.349Z,746.58
2016-08-25T03:06:39.337Z,746.59
2016-08-25T03:07:39.340Z,746.57
2016-08-25T03:08:39.336Z,746.56
2016-08-25T03:09:39.332Z,746.56
2016-08-25T03:10:39.321Z,746.56
2016-08-25T03:11:39.318Z,746.56
2016-08-25T03:12:39.320Z,746.55
2016-08-25T03:13:39.309Z,746.55
2016-08-25T03:14:39.313Z,746.55
2016-08-25T03:15:39.318Z,746.57
2016-08-25T03:16:39.298Z,746.55
2016-08-25T03:17:39.300Z,746.56
2016-08-25T03:18:39.289Z,746.53
2016-08-25T03:19:39.285Z,746.55
2016-08-25T03:20:39.287Z,746.55
2016-08-25T03:21:39.277Z,746.54
2016-08-25T03:22:39.278Z,746.53
2016-08-25T03:23:39.274Z,746.53
2016-08-25T03:24:39.271Z,746.49
2016-08-25T03:25:39.261Z,746.52
2016-08-25T03:26:39.263Z,746.5
2016-08-25T03:27:39.275Z,746.48
2016-08-25T03:28:39.249Z,746.45
2016-08-25T03:29:39.250Z,746.51
2016-08-25T03:30:39.252Z,746.49
2016-08-25T03:31:39.242Z,746.45
2016-08-25T03:32:39.239Z,746.47
2016-08-25T03:33:39.234Z,746.47
2016-08-25T03:34:39.229Z,746.45
2016-08-25T03:35:39.222Z,746.47
2016-08-25T03:36:39.221Z,746.44
2016-08-25T03:37:39.217Z,746.48
2016-08-25T03:38:39.214Z,746.47
2016-08-25T03:39:39.210Z,746.47
2016-08-25T03:40:39.206Z,746.46
2016-08-25T03:41:39.193Z,746.49
2016-08-25T03:42:39.197Z,746.48
2016-08-25T03:43:39.192Z,746.46
2016-08-25T03:44:39.182Z,746.49
2016-08-25T03:45:39.185Z,746.49
2016-08-25T03:46:39.180Z,746.54
2016-08-25T03:47:39.176Z,746.49
2016-08-25T03:48:39.165Z,746.49
2016-08-25T03:49:39.167Z,746.54
2016-08-25T03:50:39.164Z,746.52
2016-08-25T03:51:39.159Z,746.5
2016-08-25T03:52:39.160Z,746.53
2016-08-25T03:53:39.145Z,746.53
2016-08-25T03:54:39.140Z,746.53
2016-08-25T03:55:39.135Z,746.56
2016-08-25T03:56:39.139Z,746.52
2016-08-25T03:57:39.136Z,746.51
2016-08-25T03:58:39.131Z,746.56
2016-08-25T03:59:39.127Z,746.54
2016-08-25T04:00:39.117Z,746.53
2016-08-25T04:01:39.111Z,746.52
2016-08-25T04:02:39.107Z,746.5
2016-08-25T04:03:39.105Z,746.5
2016-08-25T04:04:39.100Z,746.51
2016-08-25T04:05:39.097Z,746.51
2016-08-25T04:06:39.098Z,746.48
2016-08-25T04:07:39.094Z,746.46
2016-08-25T04:08:39.090Z,746.46
2016-08-25T04:09:39.079Z,746.45
2016-08-25T04:10:39.081Z,746.49
2016-08-25T04:11:39.074Z,746.46
2016-08-25T04:12:39.068Z,746.48
2016-08-25T04:13:39.063Z,746.48
2016-08-25T04:14:39.059Z,746.5
2016-08-25T04:15:39.061Z,746.49
2016-08-25T04:16:39.056Z,746.5
2016-08-25T04:17:39.052Z,746.49
2016-08-25T04:18:39.048Z,746.51
2016-08-25T04:19:39.044Z,746.5
2016-08-25T04:20:39.033Z,746.46
2016-08-25T04:21:39.035Z,746.48
2016-08-25T04:22:39.026Z,746.52
2016-08-25T04:23:39.021Z,746.49
2016-08-25T04:24:39.016Z,746.49
2016-08-25T04:25:39.019Z,746.47
2016-08-25T04:26:39.007Z,746.48
2016-08-25T04:27:39.011Z,746.5
2016-08-25T04:28:38.998Z,746.47
2016-08-25T04:29:39.001Z,746.42
2016-08-25T04:30:38.991Z,746.44
2016-08-25T04:31:38.986Z,746.44
2016-08-25T04:32:38.981Z,746.4
2016-08-25T04:33:38.984Z,746.47
2016-08-25T04:34:38.981Z,746.49
2016-08-25T04:35:38.967Z,746.48
2016-08-25T04:36:38.965Z,746.47
2016-08-25T04:37:38.966Z,746.49
2016-08-25T04:38:38.954Z,746.48
2016-08-25T04:39:38.952Z,746.45
2016-08-25T04:40:38.946Z,746.51
2016-08-25T04:41:38.948Z,746.52
2016-08-25T04:42:38.943Z,746.5
2016-08-25T04:43:38.933Z,746.5
2016-08-25T04:44:38.929Z,746.52
2016-08-25T04:45:38.924Z,746.56
2016-08-25T04:46:38.930Z,746.59
2016-08-25T04:47:38.915Z,746.61
2016-08-25T04:48:38.918Z,746.6
2016-08-25T04:49:38.908Z,746.62
2016-08-25T04:50:38.901Z,746.6
2016-08-25T04:51:38.904Z,746.65
2016-08-25T04:52:38.901Z,746.6
2016-08-25T04:53:38.895Z,746.61
2016-08-25T04:54:38.884Z,746.65
2016-08-25T04:55:38.881Z,746.65
2016-08-25T04:56:38.877Z,746.66
2016-08-25T04:57:38.878Z,746.67
2016-08-25T04:58:38.867Z,746.7
2016-08-25T04:59:38.863Z,746.68
2016-08-25T05:00:38.866Z,746.67
2016-08-25T05:01:38.855Z,746.67
2016-08-25T05:02:38.852Z,746.66
2016-08-25T05:03:38.849Z,746.67
2016-08-25T05:04:38.849Z,746.66
2016-08-25T05:05:38.847Z,746.68
2016-08-25T05:06:38.837Z,746.71
2016-08-25T05:07:38.840Z,746.66
2016-08-25T05:08:38.829Z,746.69
2016-08-25T05:09:38.832Z,746.63
2016-08-25T05:10:38.822Z,746.65
2016-08-25T05:11:38.817Z,746.67
2016-08-25T05:12:38.814Z,746.67
2016-08-25T05:13:38.810Z,746.69
2016-08-25T05:14:38.815Z,746.67
2016-08-25T05:15:38.810Z,746.7
2016-08-25T05:16:38.806Z,746.71
2016-08-25T05:17:38.804Z,746.68
2016-08-25T05:18:38.794Z,746.68
2016-08-25T05:19:38.796Z,746.71
2016-08-25T05:20:38.794Z,746.72
2016-08-25T05:21:38.783Z,746.73
2016-08-25T05:22:38.778Z,746.7
2016-08-25T05:23:38.783Z,746.7
2016-08-25T05:24:38.781Z,746.71
2016-08-25T05:25:38.776Z,746.73
2016-08-25T05:26:38.773Z,746.72
2016-08-25T05:27:38.763Z,746.75
2016-08-25T05:28:38.767Z,746.77
2016-08-25T05:29:38.757Z,746.73
2016-08-25T05:30:38.763Z,746.73
2016-08-25T05:31:38.757Z,746.69
2016-08-25T05:32:38.755Z,746.68
2016-08-25T05:33:38.751Z,746.68
2016-08-25T05:34:38.748Z,746.73
2016-08-25T05:35:38.740Z,746.69
2016-08-25T05:36:38.738Z,746.69
2016-08-25T05:37:38.738Z,746.7
2016-08-25T05:38:38.728Z,746.69
2016-08-25T05:39:38.727Z,746.71
2016-08-25T05:40:38.731Z,746.71
2016-08-25T05:41:38.728Z,746.71
2016-08-25T05:42:38.718Z,746.74
2016-08-25T05:43:38.715Z,746.75
2016-08-25T05:44:38.719Z,746.78
2016-08-25T05:45:38.712Z,746.74
2016-08-25T05:46:38.709Z,746.72
2016-08-25T05:47:38.707Z,746.76
2016-08-25T05:48:38.703Z,746.73
2016-08-25T05:49:38.702Z,746.7
2016-08-25T05:50:38.705Z,746.67
2016-08-25T05:51:38.697Z,746.7
2016-08-25T05:52:38.701Z,746.72
2016-08-25T05:53:38.691Z,746.73
2016-08-25T05:54:38.696Z,746.71
2016-08-25T05:55:38.693Z,746.69
2016-08-25T05:56:38.684Z,746.68
2016-08-25T05:57:38.682Z,746.7
2016-08-25T05:58:38.687Z,746.71
2016-08-25T05:59:38.683Z,746.71
2016-08-25T06:00:38.673Z,746.76
2016-08-25T06:01:38.672Z,746.75
2016-08-25T06:02:38.678Z,746.71
2016-08-25T06:03:38.668Z,746.7
2016-08-25T06:04:38.666Z,746.74
2016-08-25T06:05:38.670Z,746.77
2016-08-25T06:06:38.661Z,746.73
2016-08-25T06:07:38.666Z,746.73
2016-08-25T06:08:38.655Z,746.76
2016-08-25T06:09:38.661Z,746.69
2016-08-25T06:10:38.658Z,746.73
2016-08-25T06:11:38.649Z,746.68
2016-08-25T06:12:38.653Z,746.71
2016-08-25T06:13:38.644Z,746.71
2016-08-25T06:14:38.649Z,746.72
2016-08-25T06:15:38.645Z,746.71
2016-08-25T06:16:38.644Z,746.72
2016-08-25T06:17:38.641Z,746.77
2016-08-25T06:18:38.638Z,746.75
2016-08-25T06:19:38.629Z,746.76
2016-08-25T06:20:38.628Z,746.74
2016-08-25T06:21:38.632Z,746.71
2016-08-25T06:22:38.623Z,746.74
2016-08-25T06:23:38.621Z,746.74
2016-08-25T06:24:38.620Z,746.71
2016-08-25T06:25:38.624Z,746.74
2016-08-25T06:26:38.615Z,746.73
2016-08-25T06:27:38.613Z,746.67
2016-08-25T06:28:38.616Z,746.73
2016-08-25T06:29:38.609Z,746.7
2016-08-25T06:30:38.613Z,746.78
2016-08-25T06:31:38.605Z,746.73
2016-08-25T06:32:38.609Z,746.76
2016-08-25T06:33:38.606Z,746.78
2016-08-25T06:34:38.604Z,746.76
2016-08-25T06:35:38.603Z,746.75
2016-08-25T06:36:38.601Z,746.77
2016-08-25T06:37:38.599Z,746.77
2016-08-25T06:38:38.592Z,746.75
2016-08-25T06:39:38.595Z,746.79
2016-08-25T06:40:38.587Z,746.82
2016-08-25T06:41:38.585Z,746.84
2016-08-25T06:42:38.592Z,746.87
2016-08-25T06:43:38.589Z,746.83
2016-08-25T06:44:38.588Z,746.85
2016-08-25T06:45:38.580Z,746.82
2016-08-25T06:46:38.579Z,746.82
2016-08-25T06:47:38.579Z,746.85
2016-08-25T06:48:38.577Z,746.84
2016-08-25T06:49:38.576Z,746.89
2016-08-25T06:50:38.575Z,746.89
2016-08-25T06:51:38.582Z,746.87
2016-08-25T06:52:38.574Z,746.86
2016-08-25T06:53:38.575Z,746.9
2016-08-25T06:54:38.591Z,746.89
2016-08-25T06:55:38.572Z,746.91
2016-08-25T06:56:38.584Z,746.88
2016-08-25T06:57:38.579Z,746.94
2016-08-25T06:58:38.572Z,746.9
2016-08-25T06:59:38.573Z,746.88
2016-08-25T07:00:38.573Z,746.91
2016-08-25T07:01:38.571Z,746.93
2016-08-25T07:02:38.571Z,746.91
2016-08-25T07:03:38.572Z,746.91
2016-08-25T07:04:38.579Z,746.89
2016-08-25T07:05:38.574Z,746.9
2016-08-25T07:06:38.580Z,746.93
2016-08-25T07:07:38.573Z,746.94
2016-08-25T07:08:38.573Z,746.95
2016-08-25T07:09:38.581Z,746.96
2016-08-25T07:10:38.575Z,747
2016-08-25T07:11:38.583Z,746.99
2016-08-25T07:12:38.576Z,746.96
2016-08-25T07:13:38.578Z,747
2016-08-25T07:14:38.579Z,747.02
2016-08-25T07:15:38.580Z,747.02
2016-08-25T07:16:38.587Z,747.03
2016-08-25T07:17:38.581Z,747
2016-08-25T07:18:38.590Z,747.04
2016-08-25T07:19:38.584Z,747.02
2016-08-25T07:20:38.586Z,747.01
2016-08-25T07:21:38.588Z,747.01
2016-08-25T07:22:38.596Z,747.03
2016-08-25T07:23:38.598Z,747.01
2016-08-25T07:24:38.600Z,747.04
2016-08-25T07:25:38.593Z,747.05
2016-08-25T07:26:38.603Z,747
2016-08-25T07:27:38.609Z,747.03
2016-08-25T07:28:38.606Z,747.03
2016-08-25T07:29:38.609Z,747.03
2016-08-25T07:30:38.611Z,747.08
2016-08-25T07:31:38.613Z,747.09
2016-08-25T07:32:38.608Z,747.05
2016-08-25T07:33:38.610Z,747.08
2016-08-25T07:34:38.611Z,747.05
2016-08-25T07:35:38.620Z,747.08
2016-08-25T07:36:38.623Z,747.08
2016-08-25T07:37:38.618Z,747.04
2016-08-25T07:38:38.626Z,747.06
2016-08-25T07:39:38.629Z,747.08
2016-08-25T07:40:38.630Z,747.05
2016-08-25T07:41:38.631Z,747.09
2016-08-25T07:42:38.634Z,747.05
2016-08-25T07:43:38.641Z,747.05
2016-08-25T07:44:38.631Z,747.03
2016-08-25T07:45:38.633Z,747.06
2016-08-25T07:46:38.635Z,747.02
2016-08-25T07:47:38.644Z,747.03
2016-08-25T07:48:38.646Z,747.03
2016-08-25T07:49:38.647Z,747.06
2016-08-25T07:50:38.650Z,747.1
2016-08-25T07:51:38.644Z,747.06
2016-08-25T07:52:38.646Z,747.04
2016-08-25T07:53:38.655Z,747.12
2016-08-25T07:54:38.657Z,747.1
2016-08-25T07:55:38.658Z,747.16
2016-08-25T07:56:38.667Z,747.15
2016-08-25T07:57:38.673Z,747.17
2016-08-25T07:58:38.656Z,747.11
2016-08-25T07:59:38.660Z,747.1
2016-08-25T08:00:38.660Z,747.11
2016-08-25T08:01:38.662Z,747.14
2016-08-25T08:02:38.671Z,747.15
2016-08-25T08:03:38.673Z,747.16
2016-08-25T08:04:38.669Z,747.16
2016-08-25T08:05:38.671Z,747.13
2016-08-25T08:06:38.679Z,747.12
2016-08-25T08:07:38.674Z,747.14
2016-08-25T08:08:38.675Z,747.15
2016-08-25T08:09:38.678Z,747.12
2016-08-25T08:10:38.679Z,747.15
2016-08-25T08:11:38.681Z,747.14
2016-08-25T08:12:38.682Z,747.15
2016-08-25T08:13:38.685Z,747.16
2016-08-25T08:14:38.692Z,747.18
2016-08-25T08:15:38.695Z,747.13
2016-08-25T08:16:38.701Z,747.18
2016-08-25T08:17:38.698Z,747.18
2016-08-25T08:18:38.692Z,747.12
2016-08-25T08:19:38.708Z,747.21
2016-08-25T08:20:38.695Z,747.24
2016-08-25T08:21:38.703Z,747.23
2016-08-25T08:22:38.704Z,747.25
2016-08-25T08:23:38.707Z,747.22
2016-08-25T08:24:38.702Z,747.21
2016-08-25T08:25:38.701Z,747.24
2016-08-25T08:26:38.704Z,747.23
2016-08-25T08:27:38.711Z,747.24
2016-08-25T08:28:38.712Z,747.23
2016-08-25T08:29:38.706Z,747.25
2016-08-25T08:30:38.708Z,747.25
2016-08-25T08:31:38.710Z,747.22
2016-08-25T08:32:38.711Z,747.22
2016-08-25T08:33:38.713Z,747.25
2016-08-25T08:34:38.715Z,747.22
2016-08-25T08:35:38.723Z,747.26
2016-08-25T08:36:38.724Z,747.31
2016-08-25T08:37:38.718Z,747.27
2016-08-25T08:38:38.727Z,747.24
2016-08-25T08:39:38.722Z,747.24
2016-08-25T08:40:38.725Z,747.25
2016-08-25T08:41:38.732Z,747.24
2016-08-25T08:42:38.734Z,747.29
2016-08-25T08:43:38.733Z,747.22
2016-08-25T08:44:38.735Z,747.28
2016-08-25T08:45:38.737Z,747.23
2016-08-25T08:46:38.730Z,747.21
2016-08-25T08:47:38.738Z,747.24
2016-08-25T08:48:38.732Z,747.23
2016-08-25T08:49:38.739Z,747.22
2016-08-25T08:50:38.733Z,747.24
2016-08-25T08:51:38.734Z,747.23
2016-08-25T08:52:38.741Z,747.26
2016-08-25T08:53:38.735Z,747.28
2016-08-25T08:54:38.734Z,747.25
2016-08-25T08:55:38.742Z,747.21
2016-08-25T08:56:38.736Z,747.29
2016-08-25T08:57:38.743Z,747.24
2016-08-25T08:58:38.742Z,747.26
2016-08-25T08:59:38.744Z,747.26
2016-08-25T09:00:38.738Z,747.25
2016-08-25T09:01:38.737Z,747.22
2016-08-25T09:02:38.745Z,747.22
2016-08-25T09:03:38.744Z,747.21
2016-08-25T09:04:38.744Z,747.22
2016-08-25T09:05:38.745Z,747.21
2016-08-25T09:06:38.739Z,747.21
2016-08-25T09:07:38.745Z,747.22
2016-08-25T09:08:38.746Z,747.17
2016-08-25T09:09:38.737Z,747.21
2016-08-25T09:10:38.739Z,747.22
2016-08-25T09:11:38.746Z,747.24
2016-08-25T09:12:38.739Z,747.25
2016-08-25T09:13:38.739Z,747.23
2016-08-25T09:14:38.747Z,747.21
2016-08-25T09:15:38.747Z,747.19
2016-08-25T09:16:38.739Z,747.21
2016-08-25T09:17:38.741Z,747.25
2016-08-25T09:18:38.740Z,747.2
2016-08-25T09:19:38.741Z,747.25
2016-08-25T09:20:38.740Z,747.22
2016-08-25T09:21:38.741Z,747.24
2016-08-25T09:22:38.739Z,747.24
2016-08-25T09:23:38.741Z,747.2
2016-08-25T09:24:38.746Z,747.17
2016-08-25T09:25:38.738Z,747.19
2016-08-25T09:26:38.740Z,747.2
2016-08-25T09:27:38.739Z,747.15
2016-08-25T09:28:38.745Z,747.17
2016-08-25T09:29:38.745Z,747.19
2016-08-25T09:30:38.738Z,747.16
2016-08-25T09:31:38.738Z,747.15
2016-08-25T09:32:38.744Z,747.15
2016-08-25T09:33:38.738Z,747.13
2016-08-25T09:34:38.745Z,747.13
2016-08-25T09:35:38.744Z,747.12
2016-08-25T09:36:38.743Z,747.08
2016-08-25T09:37:38.744Z,747.1
2016-08-25T09:38:38.736Z,747.12
2016-08-25T09:39:38.735Z,747.18
2016-08-25T09:40:38.741Z,747.13
2016-08-25T09:41:38.734Z,747.15
2016-08-25T09:42:38.740Z,747.1
2016-08-25T09:43:38.740Z,747.15
2016-08-25T09:44:38.739Z,747.1
2016-08-25T09:45:38.733Z,747.11
2016-08-25T09:46:38.739Z,747.12
2016-08-25T09:47:38.732Z,747.11
2016-08-25T09:48:38.734Z,747.08
2016-08-25T09:49:38.738Z,747.1
2016-08-25T09:50:38.732Z,747.16
2016-08-25T09:51:38.738Z,747.12
2016-08-25T09:52:38.731Z,747.1
2016-08-25T09:53:38.736Z,747.11
2016-08-25T09:54:38.736Z,747.16
2016-08-25T09:55:38.730Z,747.12
2016-08-25T09:56:38.729Z,747.16
2016-08-25T09:57:38.736Z,747.14
2016-08-25T09:58:38.738Z,747.17
2016-08-25T09:59:38.727Z,747.17
2016-08-25T10:00:38.728Z,747.17
2016-08-25T10:01:38.729Z,747.12
2016-08-25T10:02:38.729Z,747.14
2016-08-25T10:03:38.730Z,747.13
2016-08-25T10:04:38.735Z,747.13
2016-08-25T10:05:38.728Z,747.11
2016-08-25T10:06:38.747Z,747.13
2016-08-25T10:07:38.735Z,747.09
2016-08-25T10:08:38.728Z,747.08
2016-08-25T10:09:38.736Z,747.06
2016-08-25T10:10:38.729Z,747.1
2016-08-25T10:11:38.727Z,747.05
2016-08-25T10:12:38.728Z,747.02
2016-08-25T10:13:38.734Z,747.08
2016-08-25T10:14:38.728Z,746.99
2016-08-25T10:15:38.726Z,747.03
2016-08-25T10:16:38.734Z,747.05
2016-08-25T10:17:38.729Z,747.05
2016-08-25T10:18:38.734Z,747.07
2016-08-25T10:19:38.735Z,747.03
2016-08-25T10:20:38.735Z,747.07
2016-08-25T10:21:38.735Z,747.05
2016-08-25T10:22:38.734Z,747.06
2016-08-25T10:23:38.734Z,746.99
2016-08-25T10:24:38.735Z,747
2016-08-25T10:25:38.740Z,747.05
2016-08-25T10:26:38.734Z,747.01
2016-08-25T10:27:38.735Z,747.02
2016-08-25T10:28:38.735Z,747.06
2016-08-25T10:29:38.728Z,746.97
2016-08-25T10:30:38.734Z,747.01
2016-08-25T10:31:38.728Z,747.04
2016-08-25T10:32:38.735Z,746.99
2016-08-25T10:33:38.733Z,747.03
2016-08-25T10:34:38.728Z,747.01
2016-08-25T10:35:38.735Z,747.02
2016-08-25T10:36:38.728Z,747.04
2016-08-25T10:37:38.727Z,746.99
2016-08-25T10:38:38.728Z,747.03
2016-08-25T10:39:38.735Z,747.04
2016-08-25T10:40:38.734Z,747
2016-08-25T10:41:38.728Z,747.04
2016-08-25T10:42:38.737Z,747.02
2016-08-25T10:43:38.736Z,747.03
2016-08-25T10:44:38.734Z,747.02
2016-08-25T10:45:38.736Z,747.06
2016-08-25T10:46:38.735Z,746.97
2016-08-25T10:47:38.734Z,747.01
2016-08-25T10:48:38.735Z,747.04
2016-08-25T10:49:38.729Z,747.04
2016-08-25T10:50:38.735Z,747.02
2016-08-25T10:51:38.735Z,746.99
2016-08-25T10:52:38.735Z,747.01
2016-08-25T10:53:38.727Z,746.99
2016-08-25T10:54:38.735Z,747
2016-08-25T10:55:38.735Z,747.01
2016-08-25T10:56:38.735Z,746.97
2016-08-25T10:57:38.729Z,746.99
2016-08-25T10:58:38.729Z,746.95
2016-08-25T10:59:38.730Z,746.98
2016-08-25T11:00:38.729Z,746.97
2016-08-25T11:01:38.736Z,746.97
2016-08-25T11:02:38.729Z,746.91
2016-08-25T11:03:38.729Z,746.96
2016-08-25T11:04:38.736Z,746.92
2016-08-25T11:05:38.728Z,746.98
2016-08-25T11:06:38.729Z,746.97
2016-08-25T11:07:38.735Z,747
2016-08-25T11:08:38.878Z,747.01
2016-08-25T11:09:38.736Z,746.99
2016-08-25T11:10:38.728Z,746.99
2016-08-25T11:11:38.728Z,747.04
2016-08-25T11:12:38.735Z,747
2016-08-25T11:13:38.728Z,747.03
2016-08-25T11:14:38.726Z,747.01
2016-08-25T11:15:38.734Z,746.96
2016-08-25T11:16:38.735Z,746.98
2016-08-25T11:17:38.734Z,747
2016-08-25T11:18:38.734Z,746.98
2016-08-25T11:19:38.727Z,746.97
2016-08-25T11:20:38.735Z,746.95
2016-08-25T11:21:38.734Z,746.98
2016-08-25T11:22:38.735Z,746.95
2016-08-25T11:23:38.736Z,746.99
2016-08-25T11:24:38.731Z,746.96
2016-08-25T11:25:38.735Z,746.98
2016-08-25T11:26:38.729Z,747.01
2016-08-25T11:27:38.736Z,746.98
2016-08-25T11:28:38.736Z,747
2016-08-25T11:29:38.738Z,746.99
2016-08-25T11:30:38.731Z,747.02
2016-08-25T11:31:38.739Z,746.95
2016-08-25T11:32:38.733Z,747
2016-08-25T11:33:38.733Z,747
2016-08-25T11:34:38.734Z,747
2016-08-25T11:35:38.735Z,746.97
2016-08-25T11:36:38.742Z,747
2016-08-25T11:37:38.742Z,747
2016-08-25T11:38:38.737Z,746.98
2016-08-25T11:39:38.742Z,746.99
2016-08-25T11:40:38.742Z,746.96
2016-08-25T11:41:38.736Z,747.01
2016-08-25T11:42:38.735Z,747.01
2016-08-25T11:43:38.734Z,746.96
2016-08-25T11:45:38.735Z,747.01
2016-08-25T11:46:38.740Z,747.04
2016-08-25T11:47:38.735Z,747.01
2016-08-25T11:48:38.741Z,746.96
2016-08-25T11:49:38.741Z,747.02
2016-08-25T11:50:38.739Z,746.95
2016-08-25T11:51:38.734Z,747.02
2016-08-25T11:52:38.733Z,747.01
2016-08-25T11:53:38.739Z,746.99
2016-08-25T11:54:38.739Z,747.01
2016-08-25T11:55:38.739Z,746.97
2016-08-25T11:56:38.731Z,747.07
2016-08-25T11:57:38.731Z,747.1
2016-08-25T11:58:38.731Z,747.05
2016-08-25T11:59:38.737Z,747.02
2016-08-25T12:00:38.737Z,747.01
2016-08-25T12:01:38.735Z,747.09
2016-08-25T12:02:38.729Z,747.09
2016-08-25T12:03:38.728Z,747.07
2016-08-25T12:04:38.728Z,747.08
2016-08-25T12:05:38.734Z,747.07
2016-08-25T12:06:38.733Z,747.09
2016-08-25T12:07:38.734Z,747.06
2016-08-25T12:08:38.725Z,747.05
2016-08-25T12:09:38.733Z,747
2016-08-25T12:10:38.732Z,746.99
2016-08-25T12:11:38.725Z,747.01
2016-08-25T12:12:38.725Z,746.99
2016-08-25T12:13:38.725Z,747.01
2016-08-25T12:14:38.732Z,747.01
2016-08-25T12:15:38.731Z,746.98
2016-08-25T12:16:38.724Z,747
2016-08-25T12:17:38.732Z,746.99
2016-08-25T12:18:38.725Z,747
2016-08-25T12:19:38.731Z,746.97
2016-08-25T12:20:38.731Z,747.02
2016-08-25T12:21:38.732Z,746.98
2016-08-25T12:22:38.725Z,746.99
2016-08-25T12:23:38.731Z,747.02
2016-08-25T12:24:38.724Z,747.03
2016-08-25T12:25:38.725Z,747.05
2016-08-25T12:26:38.725Z,747.02
2016-08-25T12:27:38.724Z,747.06
2016-08-25T12:28:38.731Z,747.04
2016-08-25T12:29:38.725Z,747.06
2016-08-25T12:30:38.731Z,747.04
2016-08-25T12:31:38.724Z,747.04
2016-08-25T12:32:38.733Z,747.06
2016-08-25T12:33:38.726Z,747.02
2016-08-25T12:34:38.736Z,747.06